Terminal Aerodrome Forecast
Issued by NWS

Home | Current Version | Previous Version | Text Only | Print | Product List | Glossary On
Versions: 1 2 3 4 5 6 7 8 9 10 11 12 13 14 15 16 17 18 19 20 21 22
000
FTUS41 KPHI 231215 AAA
TAFMIV
TAF AMD
KMIV 231215Z 2312/2412 27006KT P6SM SCT007
      TEMPO 2312/2314 BKN007
     FM231400 35005KT P6SM BKN025
     FM231900 10007KT P6SM BKN040
     FM240300 VRB05KT P6SM OVC035 PROB30 2403/2409 4SM TSRA OVC015CB
     FM240900 VRB05KT P6SM VCSH OVC015=

USA.gov is the U.S. government's official web portal to all federal, state and local government web resources and services.